Archival Weather

Salzburg

Salzburg, Austria (LOWS)

Report from: Thursday, September 21, 2023 6:20 PM CEST
Current time: Saturday, February 24, 2024 5:40 PM CET

Current weather – Weather history – Daily summaries
Weather forecast

Temperature24.0°C (75.2°F)
Dew point17.0°C (62.6°F)
Winds 5 kts (2.6 m/s, 5.8 mph) North-Northwest (330°)
Visibility6.2 mi. (10 km)
Clouds Few clouds 9,000 ft. (2,743 m)
Altimeter29.56 in.Hg (1001 mB)
Relative humidity65 %
Density altitude1,724 ft. (526 m)
Remarks No significant changes expected in the next two hours
Flight conditions Visual Meteorological Conditions
Raw dataLOWS 211620Z 33005KT 9999 FEW090 24/17 Q1001 NOSIG
An error has occurred. This application may no longer respond until reloaded. Reload 🗙